Las Vegas, Nellis Air Force Base (KLSV)

NameNellis Air Force Base
CityLas Vegas
CountryUnited States
ICAOKLSV
IATALSV
Altitude1867 feet
CoordinatesGoogle Map
Live Air TrafficLiveATC.net
METARKLSV 241258Z AUTO 00000KT 10SM CLR 25/02 A2997 RMK AO2 SLP124 T02490017 $
2021-09-24 13:09:00 Wind: North (0°) 0 m/s - Visibility: 16093.4 m - Temperature: 25 °C - Dew point: 2 °C - Humidity: 22.3% - Pressure: 1014.9 hPa
Statistics

The table below shows the detailed information of all flights to/from Las Vegas, Nellis Air Force Base (KLSV).